KHEZ

Hardy-Anders Field Natchez-Adams County Airport

Natchez, Mississippi, USA
METAR KHEZ 250456Z AUTO 14004KT 10SM SCT047 23/21 A3006 RMK AO2 SLP180 T02330206 403110200
Observed Flight Rules
May-25 @ 04:56 UTC (35 minutes ago) Visual Flight Rules
Wind Visibility Clouds
140° at 4 knots 10 miles
  • Scattered at 4,700' AGL
Temperatures Readings
Current 23°C / 73°F
Dewpoint 21°C / 70°F
Humidity 89%
Altimeter 30.06" Hg
Pressure 1018 hPa
Elevation 83
METAR KHEZ 250456Z AUTO 14004KT 10SM SCT047 23/21 A3006 RMK AO2 SLP180 T02330206 403110200
Observed Flight Rules
May-25 @ 04:56 UTC
(35 minutes ago)
VFR
Wind Visibility
140° at 4 knots 10 miles
Clouds
  • Scattered at 4,700' AGL
Temperature Dewpoint
23°C / 73°F 21°C / 70°F
Humidity Altimeter Pressure
89% 30.06" Hg 1018 hPa